Weather at John F Kennedy International Airport

Public forecast

Using degrees Fahrenheit for public forecast. Weather courtesy of forecast.io.

Current aviation weather report (METAR) for John F Kennedy International Airport

Retrieved 2021/05/16 05:51 UTC (12 minutes ago):

KJFK 160551Z 24008KT 10SM FEW100 SCT120 BKN140 14/05 A3024 RMK AO2 SLP240 T01440050 10167 20139 53002

Aviation forecast (TAF) for John F Kennedy International Airport

Retrieved 2021/05/16 06:30 UTC (0 seconds ago):

TAF KJFK 160529Z 1606/1712 24006KT P6SM SCT150 BKN250 FM161400 21008KT P6SM FEW080 BKN150 FM161800 18013KT P6SM SCT080 BKN150 FM170100 19009KT P6SM FEW060 BKN150 FM170400 20005KT P6SM FEW060 BKN250